Time;durP1;ratioP1;P1;durP2;ratioP2;P2;SDS_P1;SDS_P2;PMS_P1;PMS_P2;Temp;Humidity;BMP_temperature;BMP_pressure;BME280_temperature;BME280_humidity;BME280_pressure;Samples;Min_cycle;Max_cycle;Signal;HPM_P1;HPM_P2
2022/04/02 00:02:03;;;;;;;0.52;0.52;;;;;;;;;;6151790;23;20024;-59
2022/04/02 00:04:28;;;;;;;0.85;0.85;;;;;;;;;;6153978;23;20006;-57
2022/04/02 00:06:54;;;;;;;0.35;0.35;;;;;;;;;;6153310;23;19993;-59
2022/04/02 00:09:19;;;;;;;0.17;0.17;;;;;;;;;;6153705;23;20033;-59
2022/04/02 00:11:45;;;;;;;0.47;0.47;;;;;;;;;;6153141;23;19998;-58
2022/04/02 00:14:11;;;;;;;0.90;0.90;;;;;;;;;;6153680;23;20025;-59
2022/04/02 00:16:36;;;;;;;1.00;0.20;;;;;;;;;;6153483;23;20056;-59
2022/04/02 00:19:01;;;;;;;0.80;0.80;;;;;;;;;;6153345;23;20001;-58
2022/04/02 00:21:26;;;;;;;0.55;0.55;;;;;;;;;;6153774;23;19993;-59
2022/04/02 00:23:52;;;;;;;0.00;0.00;;;;;;;;;;6153323;23;20307;-58
2022/04/02 00:26:20;;;;;;;4.22;1.90;;;;;;;;;;6153316;23;19997;-59
2022/04/02 00:28:46;;;;;;;1.75;0.55;;;;;;;;;;6153272;23;20009;-58
2022/04/02 00:31:15;;;;;;;0.00;0.00;;;;;;;;;;6153205;23;20005;-60
2022/04/02 00:33:41;;;;;;;0.40;0.40;;;;;;;;;;6153387;23;20011;-59
2022/04/02 00:36:07;;;;;;;1.17;1.17;;;;;;;;;;6152621;23;19998;-58
2022/04/02 00:38:32;;;;;;;0.25;0.25;;;;;;;;;;6153085;23;20008;-60
2022/04/02 00:40:58;;;;;;;0.00;0.00;;;;;;;;;;6152452;23;20001;-59
2022/04/02 00:43:26;;;;;;;0.65;0.65;;;;;;;;;;6153080;23;20084;-60
2022/04/02 00:45:52;;;;;;;0.10;0.10;;;;;;;;;;6152781;23;20069;-59
2022/04/02 00:48:18;;;;;;;0.13;0.13;;;;;;;;;;6152991;23;20001;-60
2022/04/02 00:50:44;;;;;;;1.08;0.98;;;;;;;;;;6151702;23;19998;-59
2022/04/02 00:53:10;;;;;;;0.20;0.20;;;;;;;;;;6152979;23;20024;-58
2022/04/02 00:55:35;;;;;;;0.98;0.32;;;;;;;;;;6153109;23;20033;-59
2022/04/02 00:58:02;;;;;;;0.52;0.52;;;;;;;;;;6152673;23;20021;-58
2022/04/02 01:00:27;;;;;;;0.00;0.00;;;;;;;;;;6152929;23;20305;-58
2022/04/02 01:02:52;;;;;;;0.22;0.22;;;;;;;;;;6152644;23;20090;-58
2022/04/02 01:05:18;;;;;;;0.00;0.00;;;;;;;;;;6153085;23;20029;-57
2022/04/02 01:07:43;;;;;;;0.00;0.00;;;;;;;;;;6152653;23;20021;-58
2022/04/02 01:10:08;;;;;;;0.57;0.57;;;;;;;;;;6152067;23;20005;-58
2022/04/02 01:12:33;;;;;;;0.85;0.85;;;;;;;;;;6152450;23;19997;-59
2022/04/02 01:14:59;;;;;;;0.20;0.20;;;;;;;;;;6152076;23;20072;-58
2022/04/02 01:17:24;;;;;;;0.00;0.00;;;;;;;;;;6153100;23;20002;-58
2022/04/02 01:19:50;;;;;;;0.22;0.22;;;;;;;;;;6153012;23;20442;-59
2022/04/02 01:22:16;;;;;;;0.60;0.60;;;;;;;;;;6152203;23;19997;-58
2022/04/02 01:24:41;;;;;;;0.10;0.10;;;;;;;;;;6151577;23;20005;-58
2022/04/02 01:27:06;;;;;;;0.60;0.60;;;;;;;;;;6152459;23;20008;-58
2022/04/02 01:29:32;;;;;;;0.20;0.20;;;;;;;;;;6152253;23;20008;-59
2022/04/02 01:31:58;;;;;;;0.43;0.43;;;;;;;;;;6151645;23;20424;-58
2022/04/02 01:34:23;;;;;;;0.20;0.08;;;;;;;;;;6152707;23;20072;-58
2022/04/02 01:36:48;;;;;;;0.10;0.10;;;;;;;;;;6152875;23;20394;-58
2022/04/02 01:39:14;;;;;;;1.45;1.25;;;;;;;;;;6151746;23;20002;-58
2022/04/02 01:41:40;;;;;;;0.00;0.00;;;;;;;;;;6152027;23;20029;-58
2022/04/02 01:44:05;;;;;;;0.52;0.52;;;;;;;;;;6152062;23;20663;-57
2022/04/02 01:46:30;;;;;;;0.10;0.10;;;;;;;;;;6152104;23;20462;-58
2022/04/02 01:48:55;;;;;;;1.55;0.30;;;;;;;;;;6151669;23;20001;-58
2022/04/02 01:51:21;;;;;;;0.15;0.15;;;;;;;;;;6151877;23;20012;-58
2022/04/02 01:53:46;;;;;;;5.63;5.45;;;;;;;;;;6151702;23;20013;-56
2022/04/02 01:56:11;;;;;;;0.13;0.05;;;;;;;;;;6151890;23;20423;-58
2022/04/02 01:58:36;;;;;;;0.55;0.55;;;;;;;;;;6153197;23;20006;-58
2022/04/02 02:01:02;;;;;;;0.32;0.30;;;;;;;;;;6152735;23;20470;-58
2022/04/02 02:03:27;;;;;;;0.73;0.70;;;;;;;;;;6153006;23;20466;-58
2022/04/02 02:05:53;;;;;;;0.00;0.00;;;;;;;;;;6152643;23;19994;-58
2022/04/02 02:08:18;;;;;;;0.75;0.25;;;;;;;;;;6152959;23;20080;-58
2022/04/02 02:10:44;;;;;;;0.00;0.00;;;;;;;;;;6152705;23;20047;-58
2022/04/02 02:13:09;;;;;;;0.00;0.00;;;;;;;;;;6152299;23;20085;-59
2022/04/02 02:15:34;;;;;;;0.10;0.10;;;;;;;;;;6153051;23;20001;-58
2022/04/02 02:18:00;;;;;;;2.55;1.13;;;;;;;;;;6152445;23;20009;-59
2022/04/02 02:20:25;;;;;;;0.57;0.57;;;;;;;;;;6153040;23;20021;-58
2022/04/02 02:22:50;;;;;;;0.17;0.17;;;;;;;;;;6152336;23;20030;-59
2022/04/02 02:25:16;;;;;;;0.00;0.00;;;;;;;;;;6152536;23;20002;-59
2022/04/02 02:27:42;;;;;;;0.55;0.55;;;;;;;;;;6151035;23;20448;-59
2022/04/02 02:30:08;;;;;;;0.22;0.22;;;;;;;;;;6151217;23;20002;-58
2022/04/02 02:32:37;;;;;;;0.32;0.32;;;;;;;;;;6152067;23;20010;-60
2022/04/02 02:38:06;;;;;;;0.65;0.38;;;;;;;;;;6151723;23;20012;-59
2022/04/02 02:40:31;;;;;;;10.80;0.85;;;;;;;;;;6152077;23;20002;-59
2022/04/02 02:42:56;;;;;;;0.10;0.10;;;;;;;;;;6151161;23;20289;-57
2022/04/02 02:45:22;;;;;;;0.00;0.00;;;;;;;;;;6152028;23;20068;-58
2022/04/02 02:47:47;;;;;;;0.20;0.20;;;;;;;;;;6151703;23;20031;-59
2022/04/02 02:50:12;;;;;;;0.00;0.00;;;;;;;;;;6151814;23;20036;-58
2022/04/02 02:52:37;;;;;;;0.10;0.10;;;;;;;;;;6152173;23;20008;-58
2022/04/02 02:55:02;;;;;;;0.30;0.30;;;;;;;;;;6152283;23;20013;-58
2022/04/02 02:57:28;;;;;;;0.10;0.10;;;;;;;;;;6152788;23;20009;-57
2022/04/02 02:59:54;;;;;;;0.38;0.30;;;;;;;;;;6151106;23;20432;-58
2022/04/02 03:02:20;;;;;;;0.60;0.60;;;;;;;;;;6152345;23;20342;-58
2022/04/02 03:04:45;;;;;;;0.20;0.20;;;;;;;;;;6152798;23;19998;-57
2022/04/02 03:07:10;;;;;;;0.00;0.00;;;;;;;;;;6152275;23;20365;-58
2022/04/02 03:09:36;;;;;;;0.68;0.68;;;;;;;;;;6151846;23;20001;-59
2022/04/02 03:12:01;;;;;;;1.85;1.00;;;;;;;;;;6151421;23;20082;-59
2022/04/02 03:14:26;;;;;;;0.60;0.60;;;;;;;;;;6152200;23;19997;-59
2022/04/02 03:16:51;;;;;;;0.10;0.10;;;;;;;;;;6151200;23;20365;-60
2022/04/02 03:19:17;;;;;;;0.43;0.10;;;;;;;;;;6151311;23;20072;-58
2022/04/02 03:21:42;;;;;;;0.00;0.00;;;;;;;;;;6151771;23;20012;-57
2022/04/02 03:24:07;;;;;;;0.40;0.40;;;;;;;;;;6150568;23;19998;-58
2022/04/02 03:26:34;;;;;;;1.55;0.63;;;;;;;;;;6150983;23;20005;-59
2022/04/02 03:28:59;;;;;;;1.02;1.00;;;;;;;;;;6150712;23;20424;-60
2022/04/02 03:31:24;;;;;;;0.20;0.20;;;;;;;;;;6151065;23;20052;-60
2022/04/02 03:33:50;;;;;;;0.10;0.10;;;;;;;;;;6150755;23;20029;-59
2022/04/02 03:36:15;;;;;;;0.20;0.20;;;;;;;;;;6151497;23;20327;-60
2022/04/02 03:38:41;;;;;;;0.10;0.10;;;;;;;;;;6151377;23;20044;-58
2022/04/02 03:41:06;;;;;;;0.28;0.28;;;;;;;;;;6150724;23;19990;-59
2022/04/02 03:43:31;;;;;;;0.17;0.15;;;;;;;;;;6151641;23;20009;-59
2022/04/02 03:47:08;;;;;;;0.00;0.00;;;;;;;;;;6150722;23;20044;-58
2022/04/02 03:48:42;;;;;;;0.55;0.55;;;;;;;;;;6151460;23;20443;-59
2022/04/02 03:51:07;;;;;;;0.20;0.20;;;;;;;;;;6125433;23;20101;-59
2022/04/02 03:53:33;;;;;;;1.45;1.00;;;;;;;;;;6150841;23;20025;-59
2022/04/02 03:55:58;;;;;;;0.00;0.00;;;;;;;;;;6150882;23;20029;-58
2022/04/02 03:58:23;;;;;;;0.75;0.10;;;;;;;;;;6151458;23;20005;-58
2022/04/02 04:00:48;;;;;;;0.20;0.20;;;;;;;;;;6151753;23;20427;-58
2022/04/02 04:03:15;;;;;;;0.20;0.20;;;;;;;;;;6151503;23;20070;-59
2022/04/02 04:05:40;;;;;;;0.88;0.88;;;;;;;;;;6151543;23;20382;-59
2022/04/02 04:08:05;;;;;;;0.17;0.17;;;;;;;;;;6151142;23;19997;-59
2022/04/02 04:10:30;;;;;;;0.00;0.00;;;;;;;;;;6151112;23;20685;-59
2022/04/02 04:12:55;;;;;;;0.20;0.20;;;;;;;;;;6151436;23;20002;-59
2022/04/02 04:15:21;;;;;;;0.08;0.08;;;;;;;;;;6152289;23;20056;-57
2022/04/02 04:17:46;;;;;;;0.00;0.00;;;;;;;;;;6152002;23;20309;-58
2022/04/02 04:20:11;;;;;;;0.32;0.32;;;;;;;;;;6151590;23;20308;-58
2022/04/02 04:22:36;;;;;;;0.30;0.30;;;;;;;;;;6151487;23;20000;-58
2022/04/02 04:25:02;;;;;;;0.10;0.10;;;;;;;;;;6151803;23;20380;-59
2022/04/02 04:27:28;;;;;;;0.15;0.15;;;;;;;;;;6152636;23;20436;-58
2022/04/02 04:29:53;;;;;;;2.00;1.42;;;;;;;;;;6151786;23;20060;-58
2022/04/02 04:32:18;;;;;;;0.00;0.00;;;;;;;;;;6152319;23;20339;-59
2022/04/02 04:34:43;;;;;;;1.77;1.50;;;;;;;;;;6152742;23;20394;-58
2022/04/02 04:37:09;;;;;;;0.00;0.00;;;;;;;;;;6152143;23;20005;-59
2022/04/02 04:39:34;;;;;;;1.13;1.02;;;;;;;;;;6152318;23;20427;-59
2022/04/02 04:41:59;;;;;;;0.55;0.40;;;;;;;;;;6151202;23;20032;-58
2022/04/02 04:44:24;;;;;;;0.75;0.75;;;;;;;;;;6151756;23;19994;-58
2022/04/02 04:46:50;;;;;;;0.45;0.45;;;;;;;;;;6151410;23;20056;-57
2022/04/02 04:49:15;;;;;;;0.05;0.05;;;;;;;;;;6151253;23;20109;-59
2022/04/02 04:51:40;;;;;;;0.35;0.35;;;;;;;;;;6152196;23;20014;-58
2022/04/02 04:54:05;;;;;;;0.32;0.32;;;;;;;;;;6120927;23;20017;-58
2022/04/02 04:56:31;;;;;;;0.20;0.20;;;;;;;;;;6122984;23;20006;-58
2022/04/02 04:58:56;;;;;;;0.20;0.10;;;;;;;;;;6123309;23;20012;-59
2022/04/02 05:01:22;;;;;;;0.25;0.25;;;;;;;;;;6123175;23;19994;-59
2022/04/02 05:03:47;;;;;;;0.52;0.52;;;;;;;;;;6122978;23;20034;-60
2022/04/02 05:06:13;;;;;;;0.00;0.00;;;;;;;;;;6122442;23;20002;-59
2022/04/02 05:08:38;;;;;;;1.50;1.13;;;;;;;;;;6123003;23;20002;-59
2022/04/02 05:11:03;;;;;;;1.25;0.63;;;;;;;;;;6122367;23;20081;-60
2022/04/02 05:13:28;;;;;;;0.20;0.20;;;;;;;;;;6122987;23;20010;-59
2022/04/02 05:15:54;;;;;;;0.13;0.13;;;;;;;;;;6122326;23;20005;-60
2022/04/02 05:18:19;;;;;;;0.57;0.57;;;;;;;;;;6122734;23;20016;-59
2022/04/02 05:20:44;;;;;;;0.20;0.20;;;;;;;;;;6122646;23;20002;-59
2022/04/02 05:23:09;;;;;;;1.60;1.00;;;;;;;;;;6122664;23;19998;-59
2022/04/02 05:25:35;;;;;;;0.73;0.73;;;;;;;;;;6122790;23;19998;-58
2022/04/02 05:28:04;;;;;;;0.00;0.00;;;;;;;;;;6122464;23;20665;-60
2022/04/02 05:30:33;;;;;;;0.00;0.00;;;;;;;;;;6122709;23;20335;-59
2022/04/02 05:32:58;;;;;;;1.65;1.35;;;;;;;;;;6122240;23;20005;-60
2022/04/02 05:35:24;;;;;;;0.98;0.57;;;;;;;;;;6123446;23;19994;-59
2022/04/02 05:37:49;;;;;;;0.55;0.55;;;;;;;;;;6122841;23;20005;-61
2022/04/02 05:40:15;;;;;;;0.00;0.00;;;;;;;;;;6122491;23;19998;-60
2022/04/02 05:42:41;;;;;;;0.45;0.40;;;;;;;;;;6122568;23;20376;-61
2022/04/02 05:45:07;;;;;;;0.47;0.43;;;;;;;;;;6122175;23;20056;-61
2022/04/02 05:47:42;;;;;;;0.63;0.63;;;;;;;;;;6122970;23;20006;-60
2022/04/02 05:50:08;;;;;;;0.30;0.30;;;;;;;;;;6122035;23;20415;-60
2022/04/02 05:52:33;;;;;;;3.72;1.13;;;;;;;;;;6123840;23;20041;-61
2022/04/02 05:55:01;;;;;;;0.70;0.70;;;;;;;;;;6150947;23;20040;-61
2022/04/02 05:57:28;;;;;;;0.00;0.00;;;;;;;;;;6152161;23;20074;-60
2022/04/02 05:59:53;;;;;;;1.17;0.73;;;;;;;;;;6152155;23;20411;-60
2022/04/02 06:02:18;;;;;;;1.23;1.13;;;;;;;;;;6151429;23;20092;-61
2022/04/02 06:04:44;;;;;;;0.57;0.57;;;;;;;;;;6151880;23;20076;-60
2022/04/02 06:07:11;;;;;;;1.35;0.95;;;;;;;;;;6151686;23;20002;-60
2022/04/02 06:09:36;;;;;;;0.00;0.00;;;;;;;;;;6152180;23;20009;-60
2022/04/02 06:12:01;;;;;;;1.20;0.70;;;;;;;;;;6151501;23;20008;-61
2022/04/02 06:14:27;;;;;;;0.10;0.10;;;;;;;;;;6152084;23;20001;-61
2022/04/02 06:16:52;;;;;;;3.08;1.35;;;;;;;;;;6152087;23;20005;-60
2022/04/02 06:19:19;;;;;;;0.55;0.55;;;;;;;;;;6151202;23;19997;-58
2022/04/02 06:21:44;;;;;;;0.10;0.10;;;;;;;;;;6151876;23;19997;-59
2022/04/02 06:24:10;;;;;;;0.10;0.10;;;;;;;;;;6151324;23;20077;-59
2022/04/02 06:26:35;;;;;;;0.22;0.22;;;;;;;;;;6151426;23;20031;-60
2022/04/02 06:29:00;;;;;;;0.10;0.10;;;;;;;;;;6151249;23;20489;-61
2022/04/02 06:31:25;;;;;;;0.43;0.43;;;;;;;;;;6151618;23;20056;-62
2022/04/02 06:33:50;;;;;;;1.02;1.02;;;;;;;;;;6151568;23;20052;-62
2022/04/02 06:36:16;;;;;;;0.63;0.63;;;;;;;;;;6151089;23;20002;-60
2022/04/02 06:38:42;;;;;;;0.38;0.38;;;;;;;;;;6152165;23;20012;-62
2022/04/02 06:41:07;;;;;;;0.57;0.57;;;;;;;;;;6152806;23;20045;-61
2022/04/02 06:43:32;;;;;;;0.25;0.25;;;;;;;;;;6127128;23;20001;-61
2022/04/02 06:45:57;;;;;;;0.00;0.00;;;;;;;;;;6154116;23;19993;-62
2022/04/02 06:48:23;;;;;;;0.20;0.20;;;;;;;;;;6152473;23;20125;-62
2022/04/02 06:50:48;;;;;;;0.65;0.65;;;;;;;;;;6152625;23;20013;-61
2022/04/02 06:53:13;;;;;;;0.00;0.00;;;;;;;;;;6151855;23;20140;-60
2022/04/02 06:55:38;;;;;;;2.50;0.98;;;;;;;;;;6125959;23;20009;-60
2022/04/02 06:58:04;;;;;;;0.00;0.00;;;;;;;;;;6152615;23;20045;-60
2022/04/02 07:00:29;;;;;;;0.10;0.10;;;;;;;;;;6152698;23;20021;-60
2022/04/02 07:02:54;;;;;;;1.17;1.08;;;;;;;;;;6152452;23;20005;-61
2022/04/02 07:05:20;;;;;;;1.88;1.77;;;;;;;;;;6151667;23;20010;-63
2022/04/02 07:07:46;;;;;;;0.00;0.00;;;;;;;;;;6151587;23;20001;-60
2022/04/02 07:10:11;;;;;;;0.25;0.25;;;;;;;;;;6124690;23;20009;-60
2022/04/02 07:12:37;;;;;;;0.60;0.60;;;;;;;;;;6146798;23;20028;-60
2022/04/02 07:15:03;;;;;;;0.10;0.10;;;;;;;;;;6149911;23;20005;-60
2022/04/02 07:17:29;;;;;;;0.00;0.00;;;;;;;;;;6151336;23;20001;-59
2022/04/02 07:19:58;;;;;;;0.00;0.00;;;;;;;;;;6151653;23;20088;-60
2022/04/02 07:22:23;;;;;;;0.00;0.00;;;;;;;;;;6151206;23;20004;-61
2022/04/02 07:24:50;;;;;;;1.02;0.28;;;;;;;;;;6151514;23;20081;-61
2022/04/02 07:27:16;;;;;;;0.65;0.45;;;;;;;;;;6150701;23;20001;-61
2022/04/02 07:29:42;;;;;;;0.05;0.05;;;;;;;;;;6151107;23;20005;-61
2022/04/02 07:32:09;;;;;;;0.63;0.63;;;;;;;;;;6150882;23;19997;-61
2022/04/02 07:34:36;;;;;;;0.10;0.10;;;;;;;;;;6151871;23;20412;-58
2022/04/02 07:37:19;;;;;;;0.10;0.10;;;;;;;;;;6150584;23;20005;-59
2022/04/02 07:40:03;;;;;;;0.00;0.00;;;;;;;;;;6151266;23;20037;-60
2022/04/02 07:42:36;;;;;;;0.10;0.10;;;;;;;;;;6151683;23;20787;-61
2022/04/02 07:45:04;;;;;;;0.17;0.17;;;;;;;;;;6150766;23;20494;-60
2022/04/02 07:47:37;;;;;;;0.20;0.15;;;;;;;;;;6152026;23;20412;-58
2022/04/02 07:50:11;;;;;;;0.00;0.00;;;;;;;;;;6150888;23;20081;-60
2022/04/02 07:52:36;;;;;;;0.20;0.20;;;;;;;;;;6150896;23;20001;-59
2022/04/02 07:55:04;;;;;;;0.75;0.65;;;;;;;;;;6149448;23;20016;-58
2022/04/02 07:57:49;;;;;;;0.05;0.05;;;;;;;;;;6149446;23;20012;-59
2022/04/02 08:00:16;;;;;;;0.00;0.00;;;;;;;;;;6147337;23;20107;-59
2022/04/02 08:02:43;;;;;;;0.10;0.10;;;;;;;;;;6148236;23;19998;-61
2022/04/02 08:05:10;;;;;;;0.08;0.08;;;;;;;;;;6148277;23;20064;-58
2022/04/02 08:07:36;;;;;;;0.00;0.00;;;;;;;;;;6148861;23;20002;-59
2022/04/02 08:10:06;;;;;;;0.10;0.10;;;;;;;;;;6148419;23;20036;-59
2022/04/02 08:12:35;;;;;;;4.45;0.77;;;;;;;;;;6122436;23;20051;-60
2022/04/02 08:15:02;;;;;;;0.10;0.10;;;;;;;;;;6148194;23;20013;-60
2022/04/02 08:17:29;;;;;;;0.65;0.65;;;;;;;;;;6148089;23;20001;-59
2022/04/02 08:19:55;;;;;;;0.00;0.00;;;;;;;;;;6148980;23;20001;-59
2022/04/02 08:22:20;;;;;;;0.47;0.47;;;;;;;;;;6148805;23;20463;-58
2022/04/02 08:24:45;;;;;;;0.00;0.00;;;;;;;;;;6149200;23;20410;-58
2022/04/02 08:27:49;;;;;;;0.15;0.15;;;;;;;;;;6149561;23;20015;-58
2022/04/02 08:30:16;;;;;;;0.00;0.00;;;;;;;;;;6030570;23;20014;-58
2022/04/02 08:32:54;;;;;;;0.80;0.80;;;;;;;;;;6030709;23;20461;-59
2022/04/02 08:35:28;;;;;;;0.00;0.00;;;;;;;;;;6096631;23;20020;-58
2022/04/02 08:38:12;;;;;;;0.15;0.15;;;;;;;;;;6150050;23;20072;-59
2022/04/02 08:40:56;;;;;;;0.43;0.43;;;;;;;;;;6149065;23;20442;-59
2022/04/02 08:43:33;;;;;;;0.00;0.00;;;;;;;;;;6149606;23;20001;-59
2022/04/02 08:46:11;;;;;;;0.00;0.00;;;;;;;;;;6151538;23;20080;-57
2022/04/02 08:48:36;;;;;;;1.30;1.20;;;;;;;;;;6151472;23;20025;-60
2022/04/02 08:51:01;;;;;;;3.03;0.60;;;;;;;;;;6151417;23;20083;-60
2022/04/02 08:53:45;;;;;;;0.82;0.68;;;;;;;;;;6102777;23;1125389;-59
2022/04/02 08:56:16;;;;;;;0.00;0.00;;;;;;;;;;6152116;23;20005;-59
2022/04/02 08:58:48;;;;;;;2.60;2.40;;;;;;;;;;6152257;23;20056;-58
2022/04/02 09:01:21;;;;;;;0.28;0.28;;;;;;;;;;6151789;23;20037;-58
2022/04/02 09:04:05;;;;;;;1.83;1.15;;;;;;;;;;6152551;23;20846;-58
2022/04/02 09:06:59;;;;;;;0.00;0.00;;;;;;;;;;6152417;23;20008;-60
2022/04/02 09:09:36;;;;;;;0.45;0.45;;;;;;;;;;6150754;23;19997;-58
2022/04/02 09:12:01;;;;;;;0.45;0.45;;;;;;;;;;6151853;23;20080;-62
2022/04/02 09:14:26;;;;;;;3.63;1.55;;;;;;;;;;6151537;23;20052;-62
2022/04/02 09:17:13;;;;;;;1.15;1.10;;;;;;;;;;6126697;23;20056;-62
2022/04/02 09:19:57;;;;;;;2.45;2.35;;;;;;;;;;6151831;23;20029;-62
2022/04/02 09:22:32;;;;;;;1.88;1.77;;;;;;;;;;6151806;23;19998;-62
2022/04/02 09:25:06;;;;;;;0.45;0.45;;;;;;;;;;6152152;23;19998;-60
2022/04/02 09:27:44;;;;;;;1.83;1.48;;;;;;;;;;6152894;23;20083;-59
2022/04/02 09:30:15;;;;;;;1.00;1.00;;;;;;;;;;6151955;23;20072;-58
2022/04/02 09:32:59;;;;;;;0.77;0.77;;;;;;;;;;6151751;23;20064;-60
2022/04/02 09:35:32;;;;;;;0.55;0.55;;;;;;;;;;6152114;23;20374;-60
2022/04/02 09:38:03;;;;;;;0.40;0.40;;;;;;;;;;6152356;23;19997;-58
2022/04/02 09:40:38;;;;;;;1.08;0.98;;;;;;;;;;6151089;23;20006;-58
2022/04/02 09:43:17;;;;;;;2.88;2.38;;;;;;;;;;6126228;23;20080;-59
2022/04/02 09:46:01;;;;;;;2.28;2.17;;;;;;;;;;6152124;23;19993;-61
2022/04/02 09:48:37;;;;;;;0.47;0.47;;;;;;;;;;6151902;23;20072;-59
2022/04/02 09:51:04;;;;;;;1.30;1.20;;;;;;;;;;6152376;23;19998;-59
2022/04/02 09:53:35;;;;;;;0.88;0.88;;;;;;;;;;6152267;23;20036;-60
2022/04/02 09:56:00;;;;;;;1.30;1.25;;;;;;;;;;6152434;23;20052;-61
2022/04/02 09:58:44;;;;;;;1.00;1.00;;;;;;;;;;6152073;23;20002;-60
2022/04/02 10:01:30;;;;;;;3.42;3.10;;;;;;;;;;6151292;23;19997;-61
2022/04/02 10:04:00;;;;;;;0.30;0.30;;;;;;;;;;6153601;23;20022;-62
2022/04/02 10:06:28;;;;;;;2.17;2.08;;;;;;;;;;6152125;23;20027;-61
2022/04/02 10:09:02;;;;;;;0.00;0.00;;;;;;;;;;6153078;23;20054;-62
2022/04/02 10:11:28;;;;;;;0.00;0.00;;;;;;;;;;6154712;23;20576;-61
2022/04/02 10:13:57;;;;;;;0.43;0.43;;;;;;;;;;6152390;23;20001;-60
2022/04/02 10:16:23;;;;;;;0.10;0.10;;;;;;;;;;6152095;23;20012;-60
2022/04/02 10:18:52;;;;;;;1.27;1.17;;;;;;;;;;6151833;23;20002;-61
2022/04/02 10:21:18;;;;;;;0.65;0.65;;;;;;;;;;6151792;23;19994;-59
2022/04/02 10:23:46;;;;;;;0.90;0.90;;;;;;;;;;6152813;23;20013;-60
2022/04/02 10:26:15;;;;;;;3.53;3.30;;;;;;;;;;6152353;23;20049;-61
2022/04/02 10:29:03;;;;;;;1.70;1.67;;;;;;;;;;6153389;23;20372;-61
2022/04/02 10:31:36;;;;;;;2.28;1.77;;;;;;;;;;6152658;23;20095;-61
2022/04/02 10:34:30;;;;;;;2.78;2.47;;;;;;;;;;6152782;23;20001;-61
2022/04/02 10:37:04;;;;;;;0.47;0.47;;;;;;;;;;6125943;23;20056;-60
2022/04/02 10:39:31;;;;;;;0.77;0.40;;;;;;;;;;6152778;23;20009;-61
2022/04/02 10:42:02;;;;;;;0.60;0.60;;;;;;;;;;6152360;23;20005;-61
2022/04/02 10:44:36;;;;;;;3.20;3.00;;;;;;;;;;6151830;23;20471;-60
2022/04/02 10:47:03;;;;;;;0.80;0.75;;;;;;;;;;6152021;23;20001;-61
2022/04/02 10:49:32;;;;;;;3.10;2.80;;;;;;;;;;6152334;23;20436;-61
2022/04/02 10:51:57;;;;;;;;;;;;;;;;;;6153411;23;20005;-61
2022/04/02 10:54:28;;;;;;;0.95;0.95;;;;;;;;;;6152055;23;19917;-61
2022/04/02 10:56:55;;;;;;;0.88;0.88;;;;;;;;;;6153133;23;20531;-60
2022/04/02 10:59:21;;;;;;;1.30;1.30;;;;;;;;;;6151939;23;20040;-60
2022/04/02 11:01:49;;;;;;;1.00;1.00;;;;;;;;;;6152957;23;19997;-60
2022/04/02 11:04:23;;;;;;;0.80;0.80;;;;;;;;;;6152512;23;19997;-60
2022/04/02 11:06:49;;;;;;;2.15;1.92;;;;;;;;;;6152361;23;20431;-60
2022/04/02 11:09:24;;;;;;;1.42;1.35;;;;;;;;;;6152009;23;20024;-60
2022/04/02 11:11:50;;;;;;;0.68;0.68;;;;;;;;;;6151534;23;20025;-60
2022/04/02 11:14:22;;;;;;;4.10;3.70;;;;;;;;;;6151673;23;20443;-60
2022/04/02 11:16:48;;;;;;;2.47;2.08;;;;;;;;;;6152222;23;20016;-60
2022/04/02 11:22:06;;;;;;;0.98;0.98;;;;;;;;;;6152328;23;20025;-59
2022/04/02 11:24:39;;;;;;;1.67;1.55;;;;;;;;;;6150370;23;20036;-59
2022/04/02 11:27:04;;;;;;;1.58;1.48;;;;;;;;;;6153048;23;20323;-60
2022/04/02 11:29:30;;;;;;;1.80;1.70;;;;;;;;;;6152908;23;20012;-59
2022/04/02 11:31:56;;;;;;;1.10;0.82;;;;;;;;;;6150217;23;20009;-58
2022/04/02 11:34:25;;;;;;;1.08;1.08;;;;;;;;;;6149013;23;19997;-55
2022/04/02 11:36:57;;;;;;;0.03;0.00;;;;;;;;;;6150902;23;20650;-60
2022/04/02 11:39:28;;;;;;;3.22;1.42;;;;;;;;;;6151073;23;20002;-61
2022/04/02 11:41:57;;;;;;;1.38;1.38;;;;;;;;;;6151757;23;19994;-60
2022/04/02 11:44:34;;;;;;;0.70;0.70;;;;;;;;;;6151510;23;20021;-60
2022/04/02 11:46:59;;;;;;;1.98;1.35;;;;;;;;;;6152024;23;20002;-59
2022/04/02 11:49:28;;;;;;;0.63;0.63;;;;;;;;;;6151415;23;20009;-58
2022/04/02 11:52:03;;;;;;;2.45;1.38;;;;;;;;;;6151877;23;20085;-59
2022/04/02 11:54:28;;;;;;;0.82;0.80;;;;;;;;;;6150804;23;20041;-59
2022/04/02 11:57:05;;;;;;;0.63;0.63;;;;;;;;;;6151997;23;20006;-59
2022/04/02 11:59:33;;;;;;;0.10;0.10;;;;;;;;;;6152428;23;20359;-58
2022/04/02 12:01:58;;;;;;;2.78;2.58;;;;;;;;;;6154056;23;20065;-59
2022/04/02 12:04:23;;;;;;;2.42;2.33;;;;;;;;;;6154152;23;20024;-60
2022/04/02 12:06:49;;;;;;;1.98;1.88;;;;;;;;;;6154551;23;20073;-60
2022/04/02 12:09:18;;;;;;;1.15;0.90;;;;;;;;;;6153100;23;20024;-61
2022/04/02 12:11:54;;;;;;;2.33;2.00;;;;;;;;;;6152720;23;20008;-59
2022/04/02 12:14:45;;;;;;;0.77;0.77;;;;;;;;;;6152127;23;20001;-60
2022/04/02 12:17:14;;;;;;;0.73;0.73;;;;;;;;;;6147619;23;20041;-59
2022/04/02 12:19:39;;;;;;;2.97;1.52;;;;;;;;;;6154216;23;20001;-59
2022/04/02 12:22:15;;;;;;;0.40;0.40;;;;;;;;;;6154696;23;19997;-58
2022/04/02 12:24:41;;;;;;;1.85;1.50;;;;;;;;;;6154967;23;20408;-60
2022/04/02 12:27:07;;;;;;;1.00;1.00;;;;;;;;;;6154429;23;20001;-59
2022/04/02 12:29:33;;;;;;;3.95;1.85;;;;;;;;;;6153634;23;20545;-59
2022/04/02 12:31:59;;;;;;;0.82;0.82;;;;;;;;;;6153439;23;20327;-59
2022/04/02 12:34:25;;;;;;;0.93;0.93;;;;;;;;;;6153221;23;20008;-59
2022/04/02 12:36:51;;;;;;;4.53;1.42;;;;;;;;;;6153811;23;20037;-59
2022/04/02 12:39:19;;;;;;;1.25;1.15;;;;;;;;;;6149240;23;20012;-59
2022/04/02 12:41:45;;;;;;;0.45;0.45;;;;;;;;;;6153348;23;20000;-59
2022/04/02 12:44:11;;;;;;;1.80;1.52;;;;;;;;;;6153054;23;20132;-59
2022/04/02 12:46:36;;;;;;;1.85;0.68;;;;;;;;;;6153753;23;20017;-59
2022/04/02 12:49:01;;;;;;;1.45;1.25;;;;;;;;;;6153942;23;20005;-62
2022/04/02 12:51:27;;;;;;;0.30;0.30;;;;;;;;;;6152323;23;20481;-60
2022/04/02 12:53:59;;;;;;;16.85;2.53;;;;;;;;;;6152771;23;20043;-59
2022/04/02 12:56:26;;;;;;;0.55;0.40;;;;;;;;;;6152368;23;20009;-60
2022/04/02 12:58:52;;;;;;;3.92;1.85;;;;;;;;;;6153147;23;20427;-60
2022/04/02 13:01:20;;;;;;;0.20;0.20;;;;;;;;;;6151790;23;20020;-59
2022/04/02 13:04:05;;;;;;;0.15;0.15;;;;;;;;;;6152850;23;20320;-59
2022/04/02 13:06:32;;;;;;;0.05;0.05;;;;;;;;;;6152064;23;20029;-59
2022/04/02 13:08:58;;;;;;;0.65;0.65;;;;;;;;;;6152694;23;20005;-58
2022/04/02 13:11:42;;;;;;;2.38;1.98;;;;;;;;;;6151505;23;20434;-58
2022/04/02 13:14:13;;;;;;;0.47;0.45;;;;;;;;;;6152293;23;20001;-59
2022/04/02 13:16:39;;;;;;;0.85;0.85;;;;;;;;;;6149041;23;20013;-59
2022/04/02 13:21:49;;;;;;;0.10;0.10;;;;;;;;;;6151856;23;20525;-59
2022/04/02 13:24:15;;;;;;;2.03;1.90;;;;;;;;;;6148711;23;20081;-59
2022/04/02 13:26:50;;;;;;;0.30;0.30;;;;;;;;;;6148494;23;20714;-60
2022/04/02 13:29:39;;;;;;;5.80;5.30;;;;;;;;;;6151605;23;20284;-58
2022/04/02 13:32:19;;;;;;;0.32;0.32;;;;;;;;;;6152734;23;20020;-58
2022/04/02 13:34:55;;;;;;;1.00;1.00;;;;;;;;;;6153555;23;20025;-59
2022/04/02 13:37:26;;;;;;;1.17;1.17;;;;;;;;;;6152211;23;20005;-58
2022/04/02 13:39:53;;;;;;;0.38;0.38;;;;;;;;;;6152837;23;20002;-60
2022/04/02 13:42:25;;;;;;;0.70;0.65;;;;;;;;;;6152698;23;20416;-59
2022/04/02 13:44:52;;;;;;;4.68;4.57;;;;;;;;;;6152700;23;20081;-59
2022/04/02 13:47:23;;;;;;;1.25;0.95;;;;;;;;;;6152809;23;20423;-59
2022/04/02 13:49:58;;;;;;;1.85;1.75;;;;;;;;;;6153805;23;20396;-60
2022/04/02 13:52:24;;;;;;;2.72;1.48;;;;;;;;;;6155920;23;19998;-60
2022/04/02 13:55:06;;;;;;;0.35;0.35;;;;;;;;;;6155246;23;20026;-61
2022/04/02 13:57:35;;;;;;;0.00;0.00;;;;;;;;;;6154857;23;20002;-60
2022/04/02 14:00:07;;;;;;;0.30;0.30;;;;;;;;;;6155293;23;20010;-61
2022/04/02 14:02:33;;;;;;;1.40;1.30;;;;;;;;;;6155229;23;20033;-60
2022/04/02 14:05:17;;;;;;;1.08;1.00;;;;;;;;;;6154881;23;19997;-59
2022/04/02 14:07:53;;;;;;;0.63;0.63;;;;;;;;;;6153517;23;20008;-58
2022/04/02 14:10:19;;;;;;;0.00;0.00;;;;;;;;;;6152819;23;20048;-59
2022/04/02 14:12:47;;;;;;;1.25;1.25;;;;;;;;;;6152730;23;20358;-59
2022/04/02 14:15:13;;;;;;;1.20;1.10;;;;;;;;;;6153515;23;20089;-59
2022/04/02 14:17:43;;;;;;;0.10;0.10;;;;;;;;;;6153142;23;20037;-59
2022/04/02 14:20:10;;;;;;;9.40;1.45;;;;;;;;;;6153014;23;20001;-58
2022/04/02 14:22:40;;;;;;;0.20;0.20;;;;;;;;;;6153020;23;20305;-59
2022/04/02 14:25:17;;;;;;;0.75;0.75;;;;;;;;;;6153967;23;20012;-59
2022/04/02 14:27:49;;;;;;;3.40;1.30;;;;;;;;;;6152947;23;20068;-60
2022/04/02 14:30:29;;;;;;;2.78;1.13;;;;;;;;;;6152294;23;20088;-59
2022/04/02 14:33:16;;;;;;;0.88;0.88;;;;;;;;;;6153038;23;20371;-59
2022/04/02 14:36:00;;;;;;;0.20;0.20;;;;;;;;;;6153337;23;20416;-57
2022/04/02 14:38:38;;;;;;;0.10;0.10;;;;;;;;;;6152331;23;20012;-58
2022/04/02 14:41:18;;;;;;;0.50;0.50;;;;;;;;;;6153002;23;20005;-58
2022/04/02 14:44:01;;;;;;;0.52;0.30;;;;;;;;;;6152997;23;20068;-59
2022/04/02 14:46:29;;;;;;;1.58;1.48;;;;;;;;;;6152732;23;20300;-59
2022/04/02 14:49:00;;;;;;;1.35;1.13;;;;;;;;;;6153521;23;20057;-59
2022/04/02 14:51:44;;;;;;;1.13;1.10;;;;;;;;;;6153265;23;20002;-59
2022/04/02 14:54:28;;;;;;;2.75;1.77;;;;;;;;;;6152623;23;20021;-59
2022/04/02 14:57:12;;;;;;;0.10;0.10;;;;;;;;;;6152880;23;20004;-59
2022/04/02 14:59:37;;;;;;;1.65;1.55;;;;;;;;;;6153124;23;20008;-59
2022/04/02 15:02:21;;;;;;;0.82;0.82;;;;;;;;;;6153218;23;20001;-59